<?xml version="1.0" encoding="UTF-8" standalone="no" ?>
<gpx xmlns="http://www.topografix.com/GPX/1/1" xmlns:xsi="http://www.w3.org/2001/XMLSchema-instance" xsi:schemaLocation="http://www.topografix.com/GPX/1/1 http://www.topografix.com/GPX/1/1/gpx.xsd" version="1.1" creator="VisuGPX - https://www.visugpx.com">
  <metadata>
    <name>Castellazo les balcons du Rio Vero</name>
  </metadata>
  <trk>
    <name><![CDATA[Castellazo les balcons du Rio Vero_1]]></name>
    <trkseg>
      <trkpt lat="42.33211" lon="0.05955">
        <ele>933.6</ele>
        <time>1989-12-31T00:00:00Z</time>
      </trkpt>
      <trkpt lat="42.33208" lon="0.05941">
        <ele>934</ele>
        <time>1989-12-31T00:00:02Z</time>
      </trkpt>
      <trkpt lat="42.33193" lon="0.05928">
        <ele>935</ele>
        <time>1989-12-31T00:00:06Z</time>
      </trkpt>
      <trkpt lat="42.33108" lon="0.05906">
        <ele>934.6</ele>
        <time>1989-12-31T00:00:24Z</time>
      </trkpt>
      <trkpt lat="42.33012" lon="0.05829">
        <ele>945.2</ele>
        <time>1989-12-31T00:00:47Z</time>
      </trkpt>
      <trkpt lat="42.32878" lon="0.05825">
        <ele>951.8</ele>
        <time>1989-12-31T00:01:15Z</time>
      </trkpt>
      <trkpt lat="42.32802" lon="0.05817">
        <ele>949</ele>
        <time>1989-12-31T00:01:31Z</time>
      </trkpt>
      <trkpt lat="42.32777" lon="0.05782">
        <ele>948.4</ele>
        <time>1989-12-31T00:01:38Z</time>
      </trkpt>
      <trkpt lat="42.32731" lon="0.05764">
        <ele>943.2</ele>
        <time>1989-12-31T00:01:48Z</time>
      </trkpt>
      <trkpt lat="42.32692" lon="0.05773">
        <ele>938</ele>
        <time>1989-12-31T00:01:56Z</time>
      </trkpt>
      <trkpt lat="42.32652" lon="0.05647">
        <ele>933</ele>
        <time>1989-12-31T00:02:17Z</time>
      </trkpt>
      <trkpt lat="42.32616" lon="0.05584">
        <ele>928.2</ele>
        <time>1989-12-31T00:02:30Z</time>
      </trkpt>
      <trkpt lat="42.32589" lon="0.05573">
        <ele>925.4</ele>
        <time>1989-12-31T00:02:35Z</time>
      </trkpt>
      <trkpt lat="42.32468" lon="0.05643">
        <ele>913</ele>
        <time>1989-12-31T00:03:03Z</time>
      </trkpt>
      <trkpt lat="42.32446" lon="0.05686">
        <ele>909.6</ele>
        <time>1989-12-31T00:03:11Z</time>
      </trkpt>
      <trkpt lat="42.32435" lon="0.05685">
        <ele>906.2</ele>
        <time>1989-12-31T00:03:13Z</time>
      </trkpt>
      <trkpt lat="42.32437" lon="0.05533">
        <ele>901.4</ele>
        <time>1989-12-31T00:03:36Z</time>
      </trkpt>
      <trkpt lat="42.32423" lon="0.05505">
        <ele>900</ele>
        <time>1989-12-31T00:03:42Z</time>
      </trkpt>
      <trkpt lat="42.32384" lon="0.05515">
        <ele>894.2</ele>
        <time>1989-12-31T00:03:50Z</time>
      </trkpt>
      <trkpt lat="42.32311" lon="0.05458">
        <ele>890.8</ele>
        <time>1989-12-31T00:04:08Z</time>
      </trkpt>
      <trkpt lat="42.32236" lon="0.05488">
        <ele>890.4</ele>
        <time>1989-12-31T00:04:24Z</time>
      </trkpt>
      <trkpt lat="42.32167" lon="0.05556">
        <ele>890.4</ele>
        <time>1989-12-31T00:04:41Z</time>
      </trkpt>
      <trkpt lat="42.32142" lon="0.05554">
        <ele>889.8</ele>
        <time>1989-12-31T00:04:47Z</time>
      </trkpt>
      <trkpt lat="42.32065" lon="0.05563">
        <ele>886</ele>
        <time>1989-12-31T00:05:03Z</time>
      </trkpt>
      <trkpt lat="42.31972" lon="0.05536">
        <ele>884.6</ele>
        <time>1989-12-31T00:05:22Z</time>
      </trkpt>
      <trkpt lat="42.31904" lon="0.05524">
        <ele>881.6</ele>
        <time>1989-12-31T00:05:37Z</time>
      </trkpt>
      <trkpt lat="42.31847" lon="0.05562">
        <ele>880.2</ele>
        <time>1989-12-31T00:05:50Z</time>
      </trkpt>
      <trkpt lat="42.31802" lon="0.0562">
        <ele>880.8</ele>
        <time>1989-12-31T00:06:03Z</time>
      </trkpt>
      <trkpt lat="42.3171" lon="0.05626">
        <ele>875.4</ele>
        <time>1989-12-31T00:06:22Z</time>
      </trkpt>
      <trkpt lat="42.31576" lon="0.05682">
        <ele>870.2</ele>
        <time>1989-12-31T00:06:51Z</time>
      </trkpt>
      <trkpt lat="42.31486" lon="0.0577">
        <ele>870.2</ele>
        <time>1989-12-31T00:07:14Z</time>
      </trkpt>
      <trkpt lat="42.314" lon="0.05821">
        <ele>868.2</ele>
        <time>1989-12-31T00:07:33Z</time>
      </trkpt>
      <trkpt lat="42.31376" lon="0.05851">
        <ele>866.8</ele>
        <time>1989-12-31T00:07:40Z</time>
      </trkpt>
      <trkpt lat="42.31295" lon="0.05867">
        <ele>868.2</ele>
        <time>1989-12-31T00:07:57Z</time>
      </trkpt>
      <trkpt lat="42.31122" lon="0.05855">
        <ele>867.2</ele>
        <time>1989-12-31T00:08:33Z</time>
      </trkpt>
      <trkpt lat="42.31014" lon="0.05887">
        <ele>868.2</ele>
        <time>2009-10-16T12:23:13Z</time>
      </trkpt>
      <trkpt lat="42.30982" lon="0.05822">
        <ele>865.8</ele>
        <time>2009-10-16T12:23:23Z</time>
      </trkpt>
      <trkpt lat="42.30891" lon="0.05769">
        <ele>867.2</ele>
        <time>2009-10-16T12:24:40Z</time>
      </trkpt>
      <trkpt lat="42.30884" lon="0.05748">
        <ele>864.8</ele>
        <time>2009-10-16T12:24:46Z</time>
      </trkpt>
      <trkpt lat="42.30854" lon="0.0573">
        <ele>862</ele>
        <time>2009-10-16T12:24:51Z</time>
      </trkpt>
      <trkpt lat="42.30827" lon="0.05667">
        <ele>861</ele>
        <time>2009-10-16T12:25:00Z</time>
      </trkpt>
      <trkpt lat="42.30787" lon="0.05625">
        <ele>861.4</ele>
        <time>2009-10-16T12:25:11Z</time>
      </trkpt>
      <trkpt lat="42.30605" lon="0.0532">
        <ele>868.6</ele>
        <time>2009-10-16T12:26:24Z</time>
      </trkpt>
      <trkpt lat="42.30495" lon="0.05279">
        <ele>874.4</ele>
        <time>2009-10-16T12:27:04Z</time>
      </trkpt>
      <trkpt lat="42.3046" lon="0.05272">
        <ele>873</ele>
        <time>2009-10-16T12:27:15Z</time>
      </trkpt>
      <trkpt lat="42.30417" lon="0.05171">
        <ele>875.8</ele>
        <time>2009-10-16T12:27:38Z</time>
      </trkpt>
      <trkpt lat="42.30444" lon="0.05057">
        <ele>879.8</ele>
        <time>2009-10-16T12:28:06Z</time>
      </trkpt>
      <trkpt lat="42.30416" lon="0.05165">
        <ele>901.4</ele>
        <time>2013-03-31T09:41:14Z</time>
      </trkpt>
      <trkpt lat="42.30447" lon="0.05081">
        <ele>904.2</ele>
        <time>2013-03-31T09:41:41Z</time>
      </trkpt>
      <trkpt lat="42.30448" lon="0.05047">
        <ele>901.8</ele>
        <time>2013-03-31T09:44:30Z</time>
      </trkpt>
      <trkpt lat="42.30377" lon="0.05052">
        <ele>903.8</ele>
        <time>2013-03-31T09:44:55Z</time>
      </trkpt>
      <trkpt lat="42.30345" lon="0.05079">
        <ele>904.8</ele>
        <time>2013-03-31T09:45:08Z</time>
      </trkpt>
      <trkpt lat="42.303" lon="0.05108">
        <ele>904.8</ele>
        <time>2013-03-31T09:45:24Z</time>
      </trkpt>
      <trkpt lat="42.30172" lon="0.05116">
        <ele>900.4</ele>
        <time>2013-03-31T09:46:03Z</time>
      </trkpt>
      <trkpt lat="42.3015" lon="0.05121">
        <ele>899</ele>
        <time>2013-03-31T09:46:06Z</time>
      </trkpt>
      <trkpt lat="42.30079" lon="0.05179">
        <ele>896.6</ele>
        <time>2013-03-31T09:46:22Z</time>
      </trkpt>
      <trkpt lat="42.29964" lon="0.05201">
        <ele>897.6</ele>
        <time>2013-03-31T09:46:53Z</time>
      </trkpt>
      <trkpt lat="42.29753" lon="0.05336">
        <ele>900.8</ele>
        <time>2013-03-31T09:48:20Z</time>
      </trkpt>
      <trkpt lat="42.29712" lon="0.05412">
        <ele>905.6</ele>
        <time>2013-03-31T09:48:51Z</time>
      </trkpt>
      <trkpt lat="42.29538" lon="0.05329">
        <ele>919.2</ele>
        <time>2013-03-31T09:50:27Z</time>
      </trkpt>
      <trkpt lat="42.29305" lon="0.0527">
        <ele>931.2</ele>
        <time>2013-03-31T09:52:12Z</time>
      </trkpt>
      <trkpt lat="42.29081" lon="0.05239">
        <ele>934.6</ele>
        <time>2013-03-31T09:53:52Z</time>
      </trkpt>
      <trkpt lat="42.28999" lon="0.05254">
        <ele>936</ele>
        <time>2013-03-31T09:54:28Z</time>
      </trkpt>
      <trkpt lat="42.28898" lon="0.05231">
        <ele>944.2</ele>
        <time>2013-03-31T09:55:16Z</time>
      </trkpt>
      <trkpt lat="42.28829" lon="0.05249">
        <ele>947</ele>
        <time>2013-03-31T09:55:56Z</time>
      </trkpt>
      <trkpt lat="42.28675" lon="0.05212">
        <ele>944.2</ele>
        <time>2013-03-31T09:57:04Z</time>
      </trkpt>
      <trkpt lat="42.28559" lon="0.05134">
        <ele>948</ele>
        <time>2013-03-31T09:58:00Z</time>
      </trkpt>
      <trkpt lat="42.28522" lon="0.05085">
        <ele>947</ele>
        <time>2013-03-31T09:58:23Z</time>
      </trkpt>
      <trkpt lat="42.28495" lon="0.05074">
        <ele>945.2</ele>
        <time>2013-03-31T09:58:35Z</time>
      </trkpt>
      <trkpt lat="42.28369" lon="0.05168">
        <ele>936</ele>
        <time>2013-03-31T10:02:45Z</time>
      </trkpt>
      <trkpt lat="42.28245" lon="0.05184">
        <ele>927.4</ele>
        <time>2013-03-31T10:03:03Z</time>
      </trkpt>
      <trkpt lat="42.28166" lon="0.05174">
        <ele>927.4</ele>
        <time>2013-03-31T10:03:16Z</time>
      </trkpt>
      <trkpt lat="42.28152" lon="0.05203">
        <ele>928.8</ele>
        <time>2013-03-31T10:03:23Z</time>
      </trkpt>
      <trkpt lat="42.28181" lon="0.05237">
        <ele>927.8</ele>
        <time>2013-03-31T10:03:33Z</time>
      </trkpt>
      <trkpt lat="42.28226" lon="0.05219">
        <ele>928.2</ele>
        <time>2013-03-31T10:04:37Z</time>
      </trkpt>
      <trkpt lat="42.28384" lon="0.05336">
        <ele>922.6</ele>
        <time>2013-03-31T10:05:21Z</time>
      </trkpt>
      <trkpt lat="42.28512" lon="0.05449">
        <ele>917.8</ele>
        <time>2013-03-31T10:05:58Z</time>
      </trkpt>
      <trkpt lat="42.28545" lon="0.05476">
        <ele>915.8</ele>
        <time>2013-03-31T10:06:13Z</time>
      </trkpt>
      <trkpt lat="42.28607" lon="0.05555">
        <ele>916.8</ele>
        <time>2013-03-31T10:06:36Z</time>
      </trkpt>
      <trkpt lat="42.28654" lon="0.05594">
        <ele>917.2</ele>
        <time>2013-03-31T10:06:52Z</time>
      </trkpt>
      <trkpt lat="42.28778" lon="0.05732">
        <ele>921.6</ele>
        <time>2013-03-31T10:07:41Z</time>
      </trkpt>
      <trkpt lat="42.2876" lon="0.05758">
        <ele>920.6</ele>
        <time>2013-03-31T10:08:59Z</time>
      </trkpt>
      <trkpt lat="42.2869" lon="0.05784">
        <ele>917.2</ele>
        <time>2013-03-31T10:09:37Z</time>
      </trkpt>
      <trkpt lat="42.28659" lon="0.05796">
        <ele>915.4</ele>
        <time>2013-03-31T10:09:46Z</time>
      </trkpt>
      <trkpt lat="42.28612" lon="0.05851">
        <ele>911</ele>
        <time>2013-03-31T10:10:00Z</time>
      </trkpt>
      <trkpt lat="42.28606" lon="0.05855">
        <ele>910.6</ele>
        <time>2013-03-31T10:10:02Z</time>
      </trkpt>
      <trkpt lat="42.28545" lon="0.0583">
        <ele>904.2</ele>
        <time>2013-03-31T10:10:31Z</time>
      </trkpt>
      <trkpt lat="42.28458" lon="0.05889">
        <ele>899.4</ele>
        <time>2013-03-31T10:11:16Z</time>
      </trkpt>
      <trkpt lat="42.28335" lon="0.05903">
        <ele>888.8</ele>
        <time>2013-03-31T10:11:45Z</time>
      </trkpt>
      <trkpt lat="42.28318" lon="0.05927">
        <ele>888</ele>
        <time>2013-03-31T10:11:49Z</time>
      </trkpt>
      <trkpt lat="42.28311" lon="0.05946">
        <ele>886.4</ele>
        <time>2013-03-31T10:11:54Z</time>
      </trkpt>
      <trkpt lat="42.2822" lon="0.05911">
        <ele>877.4</ele>
        <time>2013-03-31T10:17:30Z</time>
      </trkpt>
      <trkpt lat="42.28192" lon="0.05952">
        <ele>871</ele>
        <time>2013-03-31T10:18:07Z</time>
      </trkpt>
      <trkpt lat="42.28139" lon="0.05999">
        <ele>866.8</ele>
        <time>2013-03-31T10:20:03Z</time>
      </trkpt>
      <trkpt lat="42.28091" lon="0.06007">
        <ele>865.4</ele>
        <time>2013-03-31T10:20:15Z</time>
      </trkpt>
      <trkpt lat="42.28051" lon="0.05938">
        <ele>859.6</ele>
        <time>2013-03-31T10:20:33Z</time>
      </trkpt>
      <trkpt lat="42.28029" lon="0.059">
        <ele>850.4</ele>
        <time>2013-03-31T10:20:43Z</time>
      </trkpt>
      <trkpt lat="42.2799" lon="0.05863">
        <ele>842.2</ele>
        <time>2013-03-31T10:20:56Z</time>
      </trkpt>
      <trkpt lat="42.27867" lon="0.05845">
        <ele>826</ele>
        <time>2013-03-31T10:21:34Z</time>
      </trkpt>
      <trkpt lat="42.27808" lon="0.05794">
        <ele>822.6</ele>
        <time>2013-03-31T10:22:01Z</time>
      </trkpt>
      <trkpt lat="42.27657" lon="0.05793">
        <ele>823.6</ele>
        <time>2013-03-31T10:23:01Z</time>
      </trkpt>
      <trkpt lat="42.27588" lon="0.05811">
        <ele>824</ele>
        <time>2013-03-31T10:23:24Z</time>
      </trkpt>
      <trkpt lat="42.27575" lon="0.05798">
        <ele>825</ele>
        <time>2013-03-31T10:24:06Z</time>
      </trkpt>
      <trkpt lat="42.27538" lon="0.05789">
        <ele>821.2</ele>
        <time>2013-03-31T10:24:21Z</time>
      </trkpt>
      <trkpt lat="42.27455" lon="0.05854">
        <ele>808.2</ele>
        <time>2013-03-31T10:24:46Z</time>
      </trkpt>
      <trkpt lat="42.27409" lon="0.05853">
        <ele>801.8</ele>
        <time>2013-03-31T10:24:59Z</time>
      </trkpt>
      <trkpt lat="42.27387" lon="0.05883">
        <ele>796.6</ele>
        <time>2013-03-31T10:25:07Z</time>
      </trkpt>
      <trkpt lat="42.27308" lon="0.05868">
        <ele>785</ele>
        <time>2013-03-31T10:25:26Z</time>
      </trkpt>
      <trkpt lat="42.27252" lon="0.05875">
        <ele>772.6</ele>
        <time>2013-03-31T10:25:57Z</time>
      </trkpt>
      <trkpt lat="42.27191" lon="0.05847">
        <ele>760</ele>
        <time>2013-03-31T10:26:36Z</time>
      </trkpt>
      <trkpt lat="42.27228" lon="0.05935">
        <ele>747</ele>
        <time>2013-03-31T10:27:11Z</time>
      </trkpt>
      <trkpt lat="42.27247" lon="0.05953">
        <ele>742.8</ele>
        <time>2013-03-31T10:27:21Z</time>
      </trkpt>
      <trkpt lat="42.27244" lon="0.06039">
        <ele>744.2</ele>
        <time>2013-03-31T10:28:56Z</time>
      </trkpt>
      <trkpt lat="42.27259" lon="0.06052">
        <ele>747</ele>
        <time>2013-03-31T10:29:14Z</time>
      </trkpt>
      <trkpt lat="42.27222" lon="0.06081">
        <ele>757.6</ele>
        <time>2013-03-31T10:30:13Z</time>
      </trkpt>
      <trkpt lat="42.2721" lon="0.0612">
        <ele>766.4</ele>
        <time>2013-03-31T10:30:58Z</time>
      </trkpt>
      <trkpt lat="42.27197" lon="0.06134">
        <ele>768.8</ele>
        <time>2013-03-31T10:31:17Z</time>
      </trkpt>
      <trkpt lat="42.27103" lon="0.06087">
        <ele>792.2</ele>
        <time>2013-03-31T10:34:07Z</time>
      </trkpt>
      <trkpt lat="42.2706" lon="0.06044">
        <ele>793.2</ele>
        <time>2013-03-31T10:39:54Z</time>
      </trkpt>
      <trkpt lat="42.27046" lon="0.06031">
        <ele>791.4</ele>
        <time>2013-03-31T10:40:21Z</time>
      </trkpt>
      <trkpt lat="42.26999" lon="0.06055">
        <ele>789.4</ele>
        <time>2013-03-31T10:40:43Z</time>
      </trkpt>
      <trkpt lat="42.26953" lon="0.06082">
        <ele>781.6</ele>
        <time>2013-03-31T10:41:02Z</time>
      </trkpt>
      <trkpt lat="42.26931" lon="0.06051">
        <ele>784</ele>
        <time>2013-03-31T10:41:15Z</time>
      </trkpt>
      <trkpt lat="42.26909" lon="0.06046">
        <ele>786.4</ele>
        <time>2013-03-31T10:41:26Z</time>
      </trkpt>
      <trkpt lat="42.26866" lon="0.06086">
        <ele>788.4</ele>
        <time>2013-03-31T10:41:54Z</time>
      </trkpt>
      <trkpt lat="42.26847" lon="0.0606">
        <ele>791.8</ele>
        <time>2013-03-31T10:42:13Z</time>
      </trkpt>
      <trkpt lat="42.26815" lon="0.06052">
        <ele>795.6</ele>
        <time>2013-03-31T10:42:33Z</time>
      </trkpt>
      <trkpt lat="42.26798" lon="0.06052">
        <ele>797.6</ele>
        <time>2013-03-31T10:42:44Z</time>
      </trkpt>
      <trkpt lat="42.26748" lon="0.06038">
        <ele>803.4</ele>
        <time>2013-03-31T10:43:56Z</time>
      </trkpt>
      <trkpt lat="42.26638" lon="0.05989">
        <ele>814.4</ele>
        <time>2013-03-31T10:46:55Z</time>
      </trkpt>
      <trkpt lat="42.26585" lon="0.05963">
        <ele>815.4</ele>
        <time>2013-03-31T10:47:24Z</time>
      </trkpt>
      <trkpt lat="42.26454" lon="0.05876">
        <ele>835.6</ele>
        <time>2013-03-31T10:48:49Z</time>
      </trkpt>
      <trkpt lat="42.26438" lon="0.05857">
        <ele>836.4</ele>
        <time>2013-03-31T10:49:12Z</time>
      </trkpt>
      <trkpt lat="42.26425" lon="0.05845">
        <ele>835</ele>
        <time>2013-03-31T10:49:24Z</time>
      </trkpt>
      <trkpt lat="42.26444" lon="0.05801">
        <ele>827.8</ele>
        <time>2013-03-31T11:00:19Z</time>
      </trkpt>
      <trkpt lat="42.26443" lon="0.05766">
        <ele>829.2</ele>
        <time>2013-03-31T11:00:24Z</time>
      </trkpt>
      <trkpt lat="42.26419" lon="0.05763">
        <ele>828.8</ele>
        <time>2013-03-31T11:00:31Z</time>
      </trkpt>
      <trkpt lat="42.26358" lon="0.05805">
        <ele>823</ele>
        <time>2013-03-31T11:00:44Z</time>
      </trkpt>
      <trkpt lat="42.26345" lon="0.05821">
        <ele>819.6</ele>
        <time>2013-03-31T11:00:48Z</time>
      </trkpt>
      <trkpt lat="42.26372" lon="0.05911">
        <ele>815.8</ele>
        <time>2013-03-31T11:01:00Z</time>
      </trkpt>
      <trkpt lat="42.26389" lon="0.06003">
        <ele>809</ele>
        <time>2013-03-31T11:01:10Z</time>
      </trkpt>
      <trkpt lat="42.26366" lon="0.05977">
        <ele>804.2</ele>
        <time>2013-03-31T11:01:38Z</time>
      </trkpt>
      <trkpt lat="42.2634" lon="0.05976">
        <ele>800</ele>
        <time>2013-03-31T11:01:49Z</time>
      </trkpt>
      <trkpt lat="42.2631" lon="0.06001">
        <ele>793.8</ele>
        <time>2013-03-31T11:01:58Z</time>
      </trkpt>
      <trkpt lat="42.26268" lon="0.06004">
        <ele>785</ele>
        <time>2013-03-31T11:02:10Z</time>
      </trkpt>
      <trkpt lat="42.26252" lon="0.0604">
        <ele>781.2</ele>
        <time>2013-03-31T11:02:19Z</time>
      </trkpt>
      <trkpt lat="42.26228" lon="0.06053">
        <ele>777.4</ele>
        <time>2013-03-31T11:02:27Z</time>
      </trkpt>
      <trkpt lat="42.26139" lon="0.06065">
        <ele>767.8</ele>
        <time>2013-03-31T11:02:46Z</time>
      </trkpt>
      <trkpt lat="42.26083" lon="0.06111">
        <ele>758.2</ele>
        <time>2013-03-31T11:03:15Z</time>
      </trkpt>
      <trkpt lat="42.26044" lon="0.06122">
        <ele>754.8</ele>
        <time>2013-03-31T11:03:24Z</time>
      </trkpt>
      <trkpt lat="42.26028" lon="0.06131">
        <ele>752.4</ele>
        <time>2013-03-31T11:03:32Z</time>
      </trkpt>
      <trkpt lat="42.26013" lon="0.06127">
        <ele>750</ele>
        <time>2013-03-31T11:03:36Z</time>
      </trkpt>
      <trkpt lat="42.25916" lon="0.06013">
        <ele>744.6</ele>
        <time>2013-03-31T11:04:12Z</time>
      </trkpt>
      <trkpt lat="42.25906" lon="0.06015">
        <ele>744.6</ele>
        <time>2013-03-31T11:04:15Z</time>
      </trkpt>
      <trkpt lat="42.25917" lon="0.05939">
        <ele>740.8</ele>
        <time>2013-03-31T11:04:38Z</time>
      </trkpt>
      <trkpt lat="42.25893" lon="0.05916">
        <ele>735.6</ele>
        <time>2013-03-31T11:04:51Z</time>
      </trkpt>
      <trkpt lat="42.25797" lon="0.05925">
        <ele>729.2</ele>
        <time>2013-03-31T11:05:15Z</time>
      </trkpt>
      <trkpt lat="42.2576" lon="0.05903">
        <ele>726.8</ele>
        <time>2013-03-31T11:05:25Z</time>
      </trkpt>
      <trkpt lat="42.25682" lon="0.0586">
        <ele>721.2</ele>
        <time>2013-03-31T11:05:47Z</time>
      </trkpt>
      <trkpt lat="42.25633" lon="0.05795">
        <ele>711</ele>
        <time>2013-03-31T11:06:18Z</time>
      </trkpt>
      <trkpt lat="42.25619" lon="0.05769">
        <ele>703.8</ele>
        <time>2013-03-31T11:06:41Z</time>
      </trkpt>
      <trkpt lat="42.25543" lon="0.05794">
        <ele>690.8</ele>
        <time>2013-03-31T11:08:14Z</time>
      </trkpt>
      <trkpt lat="42.25542" lon="0.05792">
        <ele>691.4</ele>
        <time>2013-03-31T11:09:16Z</time>
      </trkpt>
      <trkpt lat="42.25562" lon="0.05754">
        <ele>689</ele>
        <time>2013-03-31T11:09:31Z</time>
      </trkpt>
      <trkpt lat="42.25545" lon="0.05717">
        <ele>684.2</ele>
        <time>2013-03-31T11:09:39Z</time>
      </trkpt>
      <trkpt lat="42.25519" lon="0.05733">
        <ele>680.2</ele>
        <time>2013-03-31T11:09:43Z</time>
      </trkpt>
      <trkpt lat="42.25515" lon="0.0578">
        <ele>679.8</ele>
        <time>2013-03-31T11:09:47Z</time>
      </trkpt>
      <trkpt lat="42.25494" lon="0.05805">
        <ele>679.4</ele>
        <time>2013-03-31T11:09:56Z</time>
      </trkpt>
      <trkpt lat="42.25468" lon="0.05886">
        <ele>671.2</ele>
        <time>2013-03-31T11:10:11Z</time>
      </trkpt>
      <trkpt lat="42.25418" lon="0.05915">
        <ele>672</ele>
        <time>2013-03-31T11:10:40Z</time>
      </trkpt>
      <trkpt lat="42.25425" lon="0.05822">
        <ele>684.6</ele>
        <time>2013-03-31T11:11:37Z</time>
      </trkpt>
      <trkpt lat="42.25378" lon="0.05755">
        <ele>689.8</ele>
        <time>2013-03-31T11:12:29Z</time>
      </trkpt>
      <trkpt lat="42.25327" lon="0.0571">
        <ele>701</ele>
        <time>2013-03-31T11:13:14Z</time>
      </trkpt>
      <trkpt lat="42.25269" lon="0.05683">
        <ele>704.4</ele>
        <time>2013-03-31T11:13:59Z</time>
      </trkpt>
      <trkpt lat="42.2522" lon="0.0563">
        <ele>699</ele>
        <time>2013-03-31T11:14:16Z</time>
      </trkpt>
      <trkpt lat="42.25112" lon="0.05581">
        <ele>699.4</ele>
        <time>2013-03-31T11:14:54Z</time>
      </trkpt>
      <trkpt lat="42.25073" lon="0.05544">
        <ele>701</ele>
        <time>2013-03-31T11:15:12Z</time>
      </trkpt>
      <trkpt lat="42.25026" lon="0.05509">
        <ele>699</ele>
        <time>2013-03-31T11:15:29Z</time>
      </trkpt>
      <trkpt lat="42.24903" lon="0.05456">
        <ele>698.6</ele>
        <time>2013-03-31T11:16:06Z</time>
      </trkpt>
      <trkpt lat="42.24776" lon="0.0535">
        <ele>697</ele>
        <time>2013-03-31T11:16:49Z</time>
      </trkpt>
      <trkpt lat="42.24738" lon="0.05306">
        <ele>694.2</ele>
        <time>2013-03-31T11:17:05Z</time>
      </trkpt>
      <trkpt lat="42.24718" lon="0.05239">
        <ele>689</ele>
        <time>2013-03-31T11:17:16Z</time>
      </trkpt>
      <trkpt lat="42.24684" lon="0.05207">
        <ele>694.2</ele>
        <time>2013-03-31T11:17:32Z</time>
      </trkpt>
      <trkpt lat="42.24675" lon="0.05153">
        <ele>701.4</ele>
        <time>2013-03-31T11:17:54Z</time>
      </trkpt>
      <trkpt lat="42.24661" lon="0.05124">
        <ele>703.4</ele>
        <time>2013-03-31T11:18:10Z</time>
      </trkpt>
      <trkpt lat="42.24593" lon="0.05054">
        <ele>710</ele>
        <time>2013-03-31T11:18:59Z</time>
      </trkpt>
      <trkpt lat="42.24565" lon="0.05021">
        <ele>708.2</ele>
        <time>2013-03-31T11:19:20Z</time>
      </trkpt>
      <trkpt lat="42.24534" lon="0.04945">
        <ele>703.4</ele>
        <time>2013-03-31T11:19:32Z</time>
      </trkpt>
      <trkpt lat="42.24531" lon="0.04889">
        <ele>702.8</ele>
        <time>2013-03-31T11:19:57Z</time>
      </trkpt>
      <trkpt lat="42.2449" lon="0.04858">
        <ele>707.6</ele>
        <time>2013-03-31T11:20:23Z</time>
      </trkpt>
      <trkpt lat="42.2446" lon="0.04857">
        <ele>707.2</ele>
        <time>2013-03-31T11:20:40Z</time>
      </trkpt>
      <trkpt lat="42.244" lon="0.04889">
        <ele>712</ele>
        <time>2013-03-31T11:21:19Z</time>
      </trkpt>
      <trkpt lat="42.24366" lon="0.04847">
        <ele>709.6</ele>
        <time>2013-03-31T11:23:23Z</time>
      </trkpt>
      <trkpt lat="42.24294" lon="0.04822">
        <ele>713</ele>
        <time>2013-03-31T11:23:46Z</time>
      </trkpt>
      <trkpt lat="42.24221" lon="0.04753">
        <ele>704.4</ele>
        <time>2013-03-31T11:24:08Z</time>
      </trkpt>
      <trkpt lat="42.24193" lon="0.04741">
        <ele>698</ele>
        <time>2013-03-31T11:24:20Z</time>
      </trkpt>
      <trkpt lat="42.24174" lon="0.0465">
        <ele>691.4</ele>
        <time>2013-03-31T11:24:43Z</time>
      </trkpt>
      <trkpt lat="42.24126" lon="0.04639">
        <ele>702.4</ele>
        <time>2013-03-31T11:26:43Z</time>
      </trkpt>
      <trkpt lat="42.24105" lon="0.04619">
        <ele>704.4</ele>
        <time>2013-03-31T11:27:20Z</time>
      </trkpt>
      <trkpt lat="42.24083" lon="0.04588">
        <ele>705.8</ele>
        <time>2013-03-31T11:28:10Z</time>
      </trkpt>
      <trkpt lat="42.24081" lon="0.04555">
        <ele>706.8</ele>
        <time>2013-03-31T11:28:22Z</time>
      </trkpt>
      <trkpt lat="42.24042" lon="0.0444">
        <ele>706.2</ele>
        <time>2013-03-31T11:28:52Z</time>
      </trkpt>
      <trkpt lat="42.23987" lon="0.04386">
        <ele>707.6</ele>
        <time>2013-03-31T11:29:38Z</time>
      </trkpt>
      <trkpt lat="42.23968" lon="0.04339">
        <ele>707.6</ele>
        <time>2013-03-31T11:30:42Z</time>
      </trkpt>
      <trkpt lat="42.23823" lon="0.04163">
        <ele>718.8</ele>
        <time>2013-03-31T11:33:09Z</time>
      </trkpt>
      <trkpt lat="42.23804" lon="0.04082">
        <ele>725</ele>
        <time>2013-03-31T11:34:25Z</time>
      </trkpt>
      <trkpt lat="42.23796" lon="0.04003">
        <ele>720.6</ele>
        <time>2013-03-31T11:35:15Z</time>
      </trkpt>
      <trkpt lat="42.23792" lon="0.03998">
        <ele>718.2</ele>
        <time>2013-03-31T11:36:29Z</time>
      </trkpt>
      <trkpt lat="42.23755" lon="0.04037">
        <ele>724.4</ele>
        <time>2013-03-31T11:38:44Z</time>
      </trkpt>
      <trkpt lat="42.23709" lon="0.0401">
        <ele>730.2</ele>
        <time>2013-03-31T11:39:42Z</time>
      </trkpt>
      <trkpt lat="42.23665" lon="0.03964">
        <ele>732.2</ele>
        <time>2013-03-31T11:40:10Z</time>
      </trkpt>
      <trkpt lat="42.23644" lon="0.03953">
        <ele>729.2</ele>
        <time>2013-03-31T11:40:35Z</time>
      </trkpt>
      <trkpt lat="42.23309" lon="0.03849">
        <ele>742.8</ele>
        <time>2013-03-31T11:43:50Z</time>
      </trkpt>
      <trkpt lat="42.23138" lon="0.03717">
        <ele>767.2</ele>
        <time>2013-03-31T11:46:26Z</time>
      </trkpt>
      <trkpt lat="42.23088" lon="0.03684">
        <ele>769.6</ele>
        <time>2013-03-31T11:47:10Z</time>
      </trkpt>
      <trkpt lat="42.23058" lon="0.03644">
        <ele>773.6</ele>
        <time>2011-05-30T11:14:10Z</time>
      </trkpt>
      <trkpt lat="42.23041" lon="0.03629">
        <ele>773.6</ele>
        <time>2011-05-30T11:14:54Z</time>
      </trkpt>
      <trkpt lat="42.22991" lon="0.03607">
        <ele>773.6</ele>
        <time>2011-05-30T11:15:39Z</time>
      </trkpt>
      <trkpt lat="42.22976" lon="0.03631">
        <ele>773.6</ele>
        <time>2011-05-30T11:18:00Z</time>
      </trkpt>
      <trkpt lat="42.23005" lon="0.03581">
        <ele>776</ele>
        <time>2011-05-30T11:19:56Z</time>
      </trkpt>
      <trkpt lat="42.22997" lon="0.03613">
        <ele>774.4</ele>
        <time>2011-05-30T11:20:20Z</time>
      </trkpt>
      <trkpt lat="42.23067" lon="0.03656">
        <ele>773.6</ele>
        <time>2011-05-30T11:21:16Z</time>
      </trkpt>
      <trkpt lat="42.2309" lon="0.0365">
        <ele>775.4</ele>
        <time>2011-05-30T11:21:35Z</time>
      </trkpt>
      <trkpt lat="42.23168" lon="0.03554">
        <ele>780.2</ele>
        <time>2011-05-30T11:23:17Z</time>
      </trkpt>
      <trkpt lat="42.23268" lon="0.03504">
        <ele>784</ele>
        <time>2011-05-30T11:24:54Z</time>
      </trkpt>
      <trkpt lat="42.23255" lon="0.03467">
        <ele>786</ele>
        <time>2011-05-30T11:25:19Z</time>
      </trkpt>
      <trkpt lat="42.23275" lon="0.03435">
        <ele>788.4</ele>
        <time>2011-05-30T11:25:43Z</time>
      </trkpt>
      <trkpt lat="42.23374" lon="0.03352">
        <ele>791.4</ele>
        <time>2011-05-30T11:27:30Z</time>
      </trkpt>
      <trkpt lat="42.2341" lon="0.03296">
        <ele>794.2</ele>
        <time>2011-05-30T11:28:21Z</time>
      </trkpt>
      <trkpt lat="42.23504" lon="0.03224">
        <ele>801.4</ele>
        <time>2011-05-30T11:30:03Z</time>
      </trkpt>
      <trkpt lat="42.23545" lon="0.03146">
        <ele>808.2</ele>
        <time>2011-05-30T11:31:14Z</time>
      </trkpt>
      <trkpt lat="42.23584" lon="0.03132">
        <ele>808.6</ele>
        <time>2011-05-30T11:31:46Z</time>
      </trkpt>
      <trkpt lat="42.23617" lon="0.03149">
        <ele>808.2</ele>
        <time>2011-05-30T11:32:17Z</time>
      </trkpt>
      <trkpt lat="42.23689" lon="0.03092">
        <ele>811.4</ele>
        <time>2011-05-30T11:33:27Z</time>
      </trkpt>
      <trkpt lat="42.23741" lon="0.0308">
        <ele>817.8</ele>
        <time>2011-05-30T11:34:29Z</time>
      </trkpt>
      <trkpt lat="42.23794" lon="0.03042">
        <ele>823.6</ele>
        <time>2011-05-30T11:35:28Z</time>
      </trkpt>
      <trkpt lat="42.23844" lon="0.03034">
        <ele>826.4</ele>
        <time>2011-05-30T11:36:14Z</time>
      </trkpt>
      <trkpt lat="42.23864" lon="0.03012">
        <ele>827.8</ele>
        <time>2011-05-30T11:36:37Z</time>
      </trkpt>
      <trkpt lat="42.23886" lon="0.02966">
        <ele>828.8</ele>
        <time>2011-05-30T11:37:14Z</time>
      </trkpt>
      <trkpt lat="42.23905" lon="0.02962">
        <ele>827.8</ele>
        <time>2011-05-30T11:37:35Z</time>
      </trkpt>
      <trkpt lat="42.23939" lon="0.02909">
        <ele>827.4</ele>
        <time>2011-05-30T11:38:24Z</time>
      </trkpt>
      <trkpt lat="42.23954" lon="0.02889">
        <ele>826.4</ele>
        <time>2011-05-30T11:38:43Z</time>
      </trkpt>
      <trkpt lat="42.24014" lon="0.02856">
        <ele>818.8</ele>
        <time>2011-05-30T11:43:49Z</time>
      </trkpt>
      <trkpt lat="42.24027" lon="0.02827">
        <ele>813</ele>
        <time>2011-05-30T11:46:25Z</time>
      </trkpt>
      <trkpt lat="42.24087" lon="0.02865">
        <ele>818.8</ele>
        <time>2011-05-30T11:47:48Z</time>
      </trkpt>
      <trkpt lat="42.24125" lon="0.02815">
        <ele>817.8</ele>
        <time>2011-05-30T11:48:58Z</time>
      </trkpt>
      <trkpt lat="42.24157" lon="0.02791">
        <ele>817.8</ele>
        <time>2011-05-30T11:49:36Z</time>
      </trkpt>
      <trkpt lat="42.24204" lon="0.02752">
        <ele>815.8</ele>
        <time>2011-05-30T11:50:23Z</time>
      </trkpt>
      <trkpt lat="42.24332" lon="0.02721">
        <ele>813</ele>
        <time>2011-05-30T11:52:26Z</time>
      </trkpt>
      <trkpt lat="42.24491" lon="0.02728">
        <ele>832.2</ele>
        <time>2011-05-30T11:55:08Z</time>
      </trkpt>
      <trkpt lat="42.24525" lon="0.02705">
        <ele>836</ele>
        <time>2011-05-30T11:55:58Z</time>
      </trkpt>
      <trkpt lat="42.24546" lon="0.02658">
        <ele>840.4</ele>
        <time>2011-05-30T11:56:39Z</time>
      </trkpt>
      <trkpt lat="42.24597" lon="0.02633">
        <ele>841.8</ele>
        <time>2011-05-30T11:57:27Z</time>
      </trkpt>
      <trkpt lat="42.24635" lon="0.02658">
        <ele>843.2</ele>
        <time>2011-05-30T11:58:10Z</time>
      </trkpt>
      <trkpt lat="42.24709" lon="0.02644">
        <ele>845.2</ele>
        <time>2011-05-30T11:59:38Z</time>
      </trkpt>
      <trkpt lat="42.24774" lon="0.02656">
        <ele>853.8</ele>
        <time>2011-05-30T12:01:03Z</time>
      </trkpt>
      <trkpt lat="42.24805" lon="0.02675">
        <ele>858.2</ele>
        <time>2011-05-30T12:02:47Z</time>
      </trkpt>
      <trkpt lat="42.24831" lon="0.02738">
        <ele>859</ele>
        <time>2011-05-30T12:03:59Z</time>
      </trkpt>
      <trkpt lat="42.24863" lon="0.02736">
        <ele>859</ele>
        <time>2011-05-30T12:05:16Z</time>
      </trkpt>
      <trkpt lat="42.24829" lon="0.02717">
        <ele>862</ele>
        <time>2011-05-30T12:06:56Z</time>
      </trkpt>
      <trkpt lat="42.24819" lon="0.02696">
        <ele>862</ele>
        <time>2011-05-30T12:07:47Z</time>
      </trkpt>
      <trkpt lat="42.24845" lon="0.02736">
        <ele>863.4</ele>
        <time>2011-05-30T13:40:18Z</time>
      </trkpt>
      <trkpt lat="42.24863" lon="0.02738">
        <ele>861</ele>
        <time>2011-05-30T13:41:05Z</time>
      </trkpt>
      <trkpt lat="42.24859" lon="0.02752">
        <ele>862</ele>
        <time>2011-05-30T13:42:42Z</time>
      </trkpt>
      <trkpt lat="42.24885" lon="0.02738">
        <ele>867.8</ele>
        <time>2011-05-30T13:43:19Z</time>
      </trkpt>
      <trkpt lat="42.24982" lon="0.02797">
        <ele>867.8</ele>
        <time>1989-12-31T00:59:40Z</time>
      </trkpt>
      <trkpt lat="42.25107" lon="0.02792">
        <ele>867.8</ele>
        <time>1989-12-31T01:00:06Z</time>
      </trkpt>
      <trkpt lat="42.25109" lon="0.0276">
        <ele>867.8</ele>
        <time>1989-12-31T01:00:11Z</time>
      </trkpt>
      <trkpt lat="42.25004" lon="0.0268">
        <ele>867.8</ele>
        <time>1989-12-31T01:00:36Z</time>
      </trkpt>
      <trkpt lat="42.25246" lon="0.02658">
        <ele>897.6</ele>
        <time>2013-03-31T12:51:07Z</time>
      </trkpt>
      <trkpt lat="42.25304" lon="0.0259">
        <ele>904.8</ele>
        <time>2013-03-31T12:51:37Z</time>
      </trkpt>
      <trkpt lat="42.25349" lon="0.02561">
        <ele>908.2</ele>
        <time>2013-03-31T12:51:56Z</time>
      </trkpt>
      <trkpt lat="42.2538" lon="0.02511">
        <ele>910.6</ele>
        <time>2013-03-31T12:52:16Z</time>
      </trkpt>
      <trkpt lat="42.25413" lon="0.02489">
        <ele>912</ele>
        <time>2013-03-31T12:52:30Z</time>
      </trkpt>
      <trkpt lat="42.25537" lon="0.02539">
        <ele>918.6</ele>
        <time>2013-03-31T12:53:13Z</time>
      </trkpt>
      <trkpt lat="42.25614" lon="0.02518">
        <ele>925.4</ele>
        <time>2013-03-31T12:53:41Z</time>
      </trkpt>
      <trkpt lat="42.25611" lon="0.02554">
        <ele>927.4</ele>
        <time>2013-03-31T12:53:51Z</time>
      </trkpt>
      <trkpt lat="42.25576" lon="0.02592">
        <ele>929.8</ele>
        <time>2013-03-31T12:54:12Z</time>
      </trkpt>
      <trkpt lat="42.25539" lon="0.02703">
        <ele>937.4</ele>
        <time>2013-03-31T12:54:51Z</time>
      </trkpt>
      <trkpt lat="42.25544" lon="0.02745">
        <ele>940.8</ele>
        <time>2013-03-31T12:55:04Z</time>
      </trkpt>
      <trkpt lat="42.25569" lon="0.0286">
        <ele>946.6</ele>
        <time>2013-03-31T12:55:38Z</time>
      </trkpt>
      <trkpt lat="42.25595" lon="0.02913">
        <ele>948.4</ele>
        <time>2013-03-31T12:55:56Z</time>
      </trkpt>
      <trkpt lat="42.2563" lon="0.02921">
        <ele>952.4</ele>
        <time>2013-03-31T12:56:10Z</time>
      </trkpt>
      <trkpt lat="42.25786" lon="0.02709">
        <ele>972.6</ele>
        <time>2013-03-31T12:57:55Z</time>
      </trkpt>
      <trkpt lat="42.25834" lon="0.02602">
        <ele>982.2</ele>
        <time>2013-03-31T12:58:45Z</time>
      </trkpt>
      <trkpt lat="42.25855" lon="0.02567">
        <ele>984</ele>
        <time>2013-03-31T12:59:03Z</time>
      </trkpt>
      <trkpt lat="42.25899" lon="0.02548">
        <ele>986</ele>
        <time>2013-03-31T12:59:21Z</time>
      </trkpt>
      <trkpt lat="42.25956" lon="0.02497">
        <ele>993.2</ele>
        <time>2013-03-31T13:10:02Z</time>
      </trkpt>
      <trkpt lat="42.26002" lon="0.026">
        <ele>982.6</ele>
        <time>2013-03-31T13:10:27Z</time>
      </trkpt>
      <trkpt lat="42.2604" lon="0.02664">
        <ele>974.4</ele>
        <time>2013-03-31T13:10:45Z</time>
      </trkpt>
      <trkpt lat="42.26211" lon="0.02768">
        <ele>971</ele>
        <time>2013-03-31T13:12:43Z</time>
      </trkpt>
      <trkpt lat="42.26346" lon="0.02726">
        <ele>961</ele>
        <time>2013-03-31T13:13:24Z</time>
      </trkpt>
      <trkpt lat="42.26331" lon="0.02838">
        <ele>970.6</ele>
        <time>2013-03-31T13:14:13Z</time>
      </trkpt>
      <trkpt lat="42.26335" lon="0.02874">
        <ele>972.6</ele>
        <time>2013-03-31T13:14:33Z</time>
      </trkpt>
      <trkpt lat="42.26362" lon="0.02929">
        <ele>979.8</ele>
        <time>2013-03-31T13:15:13Z</time>
      </trkpt>
      <trkpt lat="42.26394" lon="0.02954">
        <ele>986</ele>
        <time>2013-03-31T13:15:45Z</time>
      </trkpt>
      <trkpt lat="42.2642" lon="0.02971">
        <ele>987</ele>
        <time>2013-03-31T13:16:08Z</time>
      </trkpt>
      <trkpt lat="42.2644" lon="0.03002">
        <ele>987.8</ele>
        <time>2013-03-31T13:16:31Z</time>
      </trkpt>
      <trkpt lat="42.26512" lon="0.03144">
        <ele>999.4</ele>
        <time>2013-03-31T13:18:00Z</time>
      </trkpt>
      <trkpt lat="42.26548" lon="0.03206">
        <ele>1002.4</ele>
        <time>2013-03-31T13:24:28Z</time>
      </trkpt>
      <trkpt lat="42.26574" lon="0.03223">
        <ele>1000.8</ele>
        <time>2013-03-31T13:25:56Z</time>
      </trkpt>
      <trkpt lat="42.26618" lon="0.03198">
        <ele>999.4</ele>
        <time>2013-03-31T13:26:10Z</time>
      </trkpt>
      <trkpt lat="42.26658" lon="0.03196">
        <ele>997</ele>
        <time>2013-03-31T13:26:22Z</time>
      </trkpt>
      <trkpt lat="42.26782" lon="0.03434">
        <ele>992.6</ele>
        <time>2013-03-31T13:27:26Z</time>
      </trkpt>
      <trkpt lat="42.26846" lon="0.03442">
        <ele>989.4</ele>
        <time>2013-03-31T13:27:47Z</time>
      </trkpt>
      <trkpt lat="42.26902" lon="0.03573">
        <ele>987</ele>
        <time>2013-03-31T13:28:22Z</time>
      </trkpt>
      <trkpt lat="42.26935" lon="0.03703">
        <ele>986</ele>
        <time>2013-03-31T13:28:50Z</time>
      </trkpt>
      <trkpt lat="42.27018" lon="0.03758">
        <ele>978.2</ele>
        <time>2013-03-31T13:29:15Z</time>
      </trkpt>
      <trkpt lat="42.27125" lon="0.03776">
        <ele>969.2</ele>
        <time>2013-03-31T13:29:42Z</time>
      </trkpt>
      <trkpt lat="42.272" lon="0.0386">
        <ele>965.4</ele>
        <time>2013-03-31T13:30:01Z</time>
      </trkpt>
      <trkpt lat="42.27277" lon="0.03897">
        <ele>965.4</ele>
        <time>2013-03-31T13:30:22Z</time>
      </trkpt>
      <trkpt lat="42.27372" lon="0.03997">
        <ele>963.8</ele>
        <time>2013-03-31T13:30:52Z</time>
      </trkpt>
      <trkpt lat="42.27411" lon="0.04038">
        <ele>962.4</ele>
        <time>2013-03-31T13:31:04Z</time>
      </trkpt>
      <trkpt lat="42.2749" lon="0.04055">
        <ele>962.4</ele>
        <time>2013-03-31T13:31:22Z</time>
      </trkpt>
      <trkpt lat="42.27538" lon="0.04036">
        <ele>961.4</ele>
        <time>2013-03-31T13:31:33Z</time>
      </trkpt>
      <trkpt lat="42.27588" lon="0.03992">
        <ele>960.4</ele>
        <time>2013-03-31T13:31:48Z</time>
      </trkpt>
      <trkpt lat="42.27685" lon="0.04144">
        <ele>975.8</ele>
        <time>2013-03-31T13:33:34Z</time>
      </trkpt>
      <trkpt lat="42.27722" lon="0.04164">
        <ele>977.8</ele>
        <time>2013-03-31T13:33:56Z</time>
      </trkpt>
      <trkpt lat="42.27908" lon="0.04138">
        <ele>981.6</ele>
        <time>2013-03-31T13:35:06Z</time>
      </trkpt>
      <trkpt lat="42.27952" lon="0.04109">
        <ele>979.8</ele>
        <time>2013-03-31T13:35:19Z</time>
      </trkpt>
      <trkpt lat="42.27967" lon="0.04101">
        <ele>976.8</ele>
        <time>2013-03-31T13:35:24Z</time>
      </trkpt>
      <trkpt lat="42.2804" lon="0.04008">
        <ele>967.8</ele>
        <time>2013-03-31T13:36:06Z</time>
      </trkpt>
      <trkpt lat="42.28077" lon="0.03986">
        <ele>967.2</ele>
        <time>2013-03-31T13:36:18Z</time>
      </trkpt>
      <trkpt lat="42.2813" lon="0.04049">
        <ele>973</ele>
        <time>2013-03-31T13:36:47Z</time>
      </trkpt>
      <trkpt lat="42.28145" lon="0.04027">
        <ele>972.6</ele>
        <time>2013-03-31T13:40:58Z</time>
      </trkpt>
      <trkpt lat="42.28193" lon="0.03921">
        <ele>965.4</ele>
        <time>2013-03-31T13:42:16Z</time>
      </trkpt>
      <trkpt lat="42.28307" lon="0.03817">
        <ele>946.6</ele>
        <time>2013-03-31T13:42:50Z</time>
      </trkpt>
      <trkpt lat="42.28354" lon="0.03755">
        <ele>938.4</ele>
        <time>2013-03-31T13:43:05Z</time>
      </trkpt>
      <trkpt lat="42.28416" lon="0.03675">
        <ele>921</ele>
        <time>2013-03-31T13:43:28Z</time>
      </trkpt>
      <trkpt lat="42.28429" lon="0.03674">
        <ele>917.8</ele>
        <time>2013-03-31T13:43:32Z</time>
      </trkpt>
      <trkpt lat="42.28449" lon="0.03635">
        <ele>916.2</ele>
        <time>2013-03-31T13:43:50Z</time>
      </trkpt>
      <trkpt lat="42.2849" lon="0.03701">
        <ele>920.6</ele>
        <time>2013-03-31T13:44:29Z</time>
      </trkpt>
      <trkpt lat="42.28566" lon="0.03766">
        <ele>921.6</ele>
        <time>2013-03-31T13:45:00Z</time>
      </trkpt>
      <trkpt lat="42.28668" lon="0.0379">
        <ele>916.8</ele>
        <time>2013-03-31T13:45:29Z</time>
      </trkpt>
      <trkpt lat="42.28698" lon="0.03789">
        <ele>912</ele>
        <time>2013-03-31T13:46:16Z</time>
      </trkpt>
      <trkpt lat="42.28733" lon="0.03759">
        <ele>909</ele>
        <time>2013-03-31T13:46:22Z</time>
      </trkpt>
      <trkpt lat="42.28757" lon="0.03683">
        <ele>904.2</ele>
        <time>2013-03-31T13:46:31Z</time>
      </trkpt>
      <trkpt lat="42.28782" lon="0.03663">
        <ele>903.8</ele>
        <time>2013-03-31T13:46:37Z</time>
      </trkpt>
      <trkpt lat="42.28864" lon="0.03557">
        <ele>894.6</ele>
        <time>2013-03-31T13:46:54Z</time>
      </trkpt>
      <trkpt lat="42.28913" lon="0.03459">
        <ele>888.8</ele>
        <time>2013-03-31T13:47:10Z</time>
      </trkpt>
      <trkpt lat="42.28947" lon="0.03437">
        <ele>887</ele>
        <time>2013-03-31T13:47:16Z</time>
      </trkpt>
      <trkpt lat="42.29062" lon="0.0336">
        <ele>872</ele>
        <time>2013-03-31T13:47:41Z</time>
      </trkpt>
      <trkpt lat="42.29137" lon="0.03335">
        <ele>870.2</ele>
        <time>2013-03-31T13:48:06Z</time>
      </trkpt>
      <trkpt lat="42.29237" lon="0.03417">
        <ele>874.4</ele>
        <time>2013-03-31T13:48:46Z</time>
      </trkpt>
      <trkpt lat="42.29294" lon="0.03399">
        <ele>875</ele>
        <time>2013-03-31T13:49:06Z</time>
      </trkpt>
      <trkpt lat="42.29311" lon="0.03364">
        <ele>874.4</ele>
        <time>2013-03-31T13:49:15Z</time>
      </trkpt>
      <trkpt lat="42.29341" lon="0.03352">
        <ele>872.6</ele>
        <time>2013-03-31T13:49:21Z</time>
      </trkpt>
      <trkpt lat="42.29371" lon="0.03346">
        <ele>869.2</ele>
        <time>2013-03-31T13:49:27Z</time>
      </trkpt>
      <trkpt lat="42.29414" lon="0.03374">
        <ele>859.6</ele>
        <time>2013-03-31T13:49:36Z</time>
      </trkpt>
      <trkpt lat="42.29449" lon="0.03358">
        <ele>859</ele>
        <time>2013-03-31T13:49:46Z</time>
      </trkpt>
      <trkpt lat="42.29453" lon="0.03326">
        <ele>854.8</ele>
        <time>2013-03-31T13:49:51Z</time>
      </trkpt>
      <trkpt lat="42.29468" lon="0.03314">
        <ele>854.8</ele>
        <time>2013-03-31T13:49:58Z</time>
      </trkpt>
      <trkpt lat="42.29515" lon="0.03324">
        <ele>857.6</ele>
        <time>2013-03-31T13:50:10Z</time>
      </trkpt>
      <trkpt lat="42.29546" lon="0.03297">
        <ele>857.6</ele>
        <time>2013-03-31T13:50:22Z</time>
      </trkpt>
      <trkpt lat="42.2963" lon="0.03327">
        <ele>862.4</ele>
        <time>2013-03-31T13:50:51Z</time>
      </trkpt>
      <trkpt lat="42.29666" lon="0.03374">
        <ele>861.4</ele>
        <time>2013-03-31T13:51:07Z</time>
      </trkpt>
      <trkpt lat="42.2971" lon="0.03409">
        <ele>861</ele>
        <time>2013-03-31T13:51:21Z</time>
      </trkpt>
      <trkpt lat="42.29757" lon="0.03434">
        <ele>860</ele>
        <time>2013-03-31T13:51:34Z</time>
      </trkpt>
      <trkpt lat="42.2982" lon="0.03488">
        <ele>857.6</ele>
        <time>2013-03-31T13:51:52Z</time>
      </trkpt>
      <trkpt lat="42.29888" lon="0.0351">
        <ele>862</ele>
        <time>2013-03-31T13:52:13Z</time>
      </trkpt>
      <trkpt lat="42.29914" lon="0.03497">
        <ele>863.8</ele>
        <time>2013-03-31T13:52:28Z</time>
      </trkpt>
      <trkpt lat="42.29925" lon="0.0349">
        <ele>863.8</ele>
        <time>2013-03-31T13:52:36Z</time>
      </trkpt>
      <trkpt lat="42.29951" lon="0.03509">
        <ele>861.4</ele>
        <time>2013-03-31T13:52:48Z</time>
      </trkpt>
      <trkpt lat="42.29951" lon="0.03522">
        <ele>861</ele>
        <time>2013-03-31T13:52:51Z</time>
      </trkpt>
      <trkpt lat="42.29969" lon="0.03521">
        <ele>861</ele>
        <time>2013-03-31T13:53:16Z</time>
      </trkpt>
      <trkpt lat="42.29958" lon="0.03525">
        <ele>861</ele>
        <time>2013-03-31T13:53:53Z</time>
      </trkpt>
      <trkpt lat="42.29989" lon="0.03565">
        <ele>859</ele>
        <time>2013-03-31T13:56:20Z</time>
      </trkpt>
      <trkpt lat="42.30057" lon="0.03627">
        <ele>856.2</ele>
        <time>2013-03-31T13:56:32Z</time>
      </trkpt>
      <trkpt lat="42.30101" lon="0.03634">
        <ele>855.2</ele>
        <time>2013-03-31T13:56:39Z</time>
      </trkpt>
      <trkpt lat="42.30167" lon="0.03675">
        <ele>847</ele>
        <time>2013-03-31T13:56:47Z</time>
      </trkpt>
      <trkpt lat="42.30276" lon="0.03628">
        <ele>842.2</ele>
        <time>2013-03-31T13:57:00Z</time>
      </trkpt>
      <trkpt lat="42.30326" lon="0.03637">
        <ele>841.2</ele>
        <time>2013-03-31T13:57:08Z</time>
      </trkpt>
      <trkpt lat="42.30401" lon="0.0371">
        <ele>846.6</ele>
        <time>2013-03-31T13:57:26Z</time>
      </trkpt>
      <trkpt lat="42.30482" lon="0.03796">
        <ele>849</ele>
        <time>2013-03-31T13:57:50Z</time>
      </trkpt>
      <trkpt lat="42.30541" lon="0.03815">
        <ele>849.4</ele>
        <time>2013-03-31T13:58:05Z</time>
      </trkpt>
      <trkpt lat="42.30587" lon="0.03852">
        <ele>851.4</ele>
        <time>2013-03-31T13:58:22Z</time>
      </trkpt>
      <trkpt lat="42.30538" lon="0.03943">
        <ele>855.8</ele>
        <time>2013-03-31T13:59:01Z</time>
      </trkpt>
      <trkpt lat="42.30483" lon="0.04">
        <ele>862.4</ele>
        <time>2013-03-31T13:59:34Z</time>
      </trkpt>
      <trkpt lat="42.30475" lon="0.04024">
        <ele>865.4</ele>
        <time>2013-03-31T13:59:44Z</time>
      </trkpt>
      <trkpt lat="42.3049" lon="0.0406">
        <ele>865.8</ele>
        <time>2013-03-31T14:00:01Z</time>
      </trkpt>
      <trkpt lat="42.30602" lon="0.04118">
        <ele>859</ele>
        <time>2013-03-31T14:00:35Z</time>
      </trkpt>
      <trkpt lat="42.30656" lon="0.04129">
        <ele>855.2</ele>
        <time>2013-03-31T14:00:45Z</time>
      </trkpt>
      <trkpt lat="42.30685" lon="0.0417">
        <ele>852.4</ele>
        <time>2013-03-31T14:00:53Z</time>
      </trkpt>
      <trkpt lat="42.30719" lon="0.04195">
        <ele>851</ele>
        <time>2013-03-31T14:01:03Z</time>
      </trkpt>
      <trkpt lat="42.30707" lon="0.04187">
        <ele>850.4</ele>
        <time>2013-03-31T14:01:28Z</time>
      </trkpt>
      <trkpt lat="42.30725" lon="0.04338">
        <ele>851</ele>
        <time>2013-03-31T14:02:02Z</time>
      </trkpt>
      <trkpt lat="42.30662" lon="0.04846">
        <ele>861</ele>
        <time>2013-03-31T14:04:13Z</time>
      </trkpt>
      <trkpt lat="42.30632" lon="0.04905">
        <ele>867.2</ele>
        <time>2013-03-31T14:04:41Z</time>
      </trkpt>
      <trkpt lat="42.30587" lon="0.04953">
        <ele>874</ele>
        <time>2013-03-31T14:05:13Z</time>
      </trkpt>
      <trkpt lat="42.30557" lon="0.0497">
        <ele>877.4</ele>
        <time>2013-03-31T14:05:29Z</time>
      </trkpt>
      <trkpt lat="42.30462" lon="0.05013">
        <ele>885.6</ele>
        <time>2013-03-31T14:06:19Z</time>
      </trkpt>
      <trkpt lat="42.30445" lon="0.05063">
        <ele>884</ele>
        <time>2013-03-31T14:06:36Z</time>
      </trkpt>
      <trkpt lat="42.30446" lon="0.05079">
        <ele>882.6</ele>
        <time>2013-03-31T14:06:47Z</time>
      </trkpt>
      <trkpt lat="42.30454" lon="0.05072">
        <ele>884.6</ele>
        <time>2013-03-31T14:06:56Z</time>
      </trkpt>
      <trkpt lat="42.30452" lon="0.05078">
        <ele>884</ele>
        <time>2013-03-31T14:07:10Z</time>
      </trkpt>
      <trkpt lat="42.30438" lon="0.0508">
        <ele>882.6</ele>
        <time>2013-03-31T14:08:22Z</time>
      </trkpt>
      <trkpt lat="42.30414" lon="0.05153">
        <ele>882.2</ele>
        <time>2013-03-31T14:08:42Z</time>
      </trkpt>
    </trkseg>
  </trk>
</gpx>